Bentonville, AR

8:43 PM CST on November 23, 2014 (GMT -0600)
Blueberry Heights | Change Station
CLOSE
Current Station
Personal Weather Station
Location: Bentonville, AR
Elevation: 1306 ft
Nearby Weather Stations

Elev 1306 ft 36.38 °N, 94.18 °W | Updated 1 second ago

Overcast
Overcast
47.3 °F
Feels Like 45 °F
N
5.8
Wind Variable Wind from NE
Gusts 5.8 mph

Today
High -- | Low -- °F
--% Chance of Precip.
Yesterday
High -- | Low -- °F
Precip. -- in
7:02 AM 5:03 PM
Waxing Crescent, 3% visible
Pressure 29.40 in
Visibility 9.0 miles
Clouds Overcast 600 ft
Windchill 45 °F
Dew Point 47 °F
Humidity 99%
Rainfall 1.85 in
Snow Depth Not available.
UV 0 out of 12
Pollen .60 out of 12
Air Quality Not available.
Flu Activity Not available.
METAR KVBT 240235Z AUTO 32016G25KT 9SM OVC006 09/07 A2940 RMK AO1 P0001

More Conditions Fewer Conditions

Pressure 29.40 in
Visibility 9.0 miles
Clouds Overcast 600 ft
Windchill 45 °F
Dew Point 47 °F
Humidity 99%
Rainfall 1.85 in
Snow Depth Not available.
UV 0 out of 12
Pollen .60 out of 12
Air Quality Not available.
Flu Activity Not available.
METAR KVBT 240235Z AUTO 32016G25KT 9SM OVC006 09/07 A2940 RMK AO1 P0001

More Conditions Fewer Conditions

Nowcast | as of 7:07 PM CST on November 23, 2014

At 7:05 PM... National Weather Service radars indicated scattered light showers and isolated small thunderstorms in far northeast Oklahoma and northwest Arkansas... located generally east of a line from mountainberg... to Siloam Springs... to Welch. This activity was moving to the east at about 35 mph. A second area of light rainfall and drizzle was located in northeast Oklahoma... west of a line from Okfuskee to coffeville. Through 9:00 PM... showers and thunderstorms will continue to move off to the east out of the area as a cold front moves into the region. Light rain or drizzle will continue to spread in northeast Oklahoma in the wake of the cold front.

×

10-Day Weather Forecast

Almanac

Astronomy

Nov. 23, 2014 Rise Set
Actual Time
Civil Twilight
Nautical Twilight
Astronomical Twilight
Moon
Length of Visible Light
Length of Day
Tomorrow will be .
, % of the Moon is Illuminated

Today's Extremes

State Highs State Lows

Community

WunderPhotos

Upload Photos

1,773,257 photos uploaded!

WunderBlogs® & News

Nearby

Air Quality

  Air Quality AQ Index Pollutant
Not available.

Snow Depth

Station Depth Elevation

Earthquake Activity

City Distance Mag. Time & Date
Minimum magnitude displayed is 2.5.

Coastal Water Temperatures

Place Temperature

Nearby Weather Stations